createdAt,value
2019-04-04T00:00:16.246Z,23.97
2019-04-04T00:01:20.532Z,23.60
2019-04-04T00:01:56.907Z,21.87
2019-04-04T00:02:32.435Z,22.33
2019-04-04T00:03:08.578Z,23.00
2019-04-04T00:03:44.104Z,23.23
2019-04-04T00:04:21.792Z,22.37
2019-04-04T00:04:57.832Z,24.03
2019-04-04T00:05:33.715Z,23.60
2019-04-04T00:06:09.466Z,24.33
2019-04-04T00:06:44.921Z,23.20
2019-04-04T00:07:20.347Z,25.00
2019-04-04T00:07:55.770Z,24.87
2019-04-04T00:08:32.087Z,25.97
2019-04-04T00:09:10.404Z,23.90
2019-04-04T00:09:45.917Z,24.07
2019-04-04T00:10:21.565Z,24.47
2019-04-04T00:10:56.988Z,24.53
2019-04-04T00:11:32.647Z,25.53
2019-04-04T00:12:08.667Z,25.23
2019-04-04T00:12:44.649Z,23.63
2019-04-04T00:13:20.293Z,25.23
2019-04-04T00:13:55.771Z,27.10
2019-04-04T00:14:31.186Z,26.20
2019-04-04T00:15:06.746Z,24.27
2019-04-04T00:15:45.358Z,23.93
2019-04-04T00:16:20.230Z,24.77
2019-04-04T00:16:55.726Z,25.93
2019-04-04T00:17:31.198Z,26.80
2019-04-04T00:18:06.930Z,27.23
2019-04-04T00:18:42.483Z,25.67
2019-04-04T00:19:17.929Z,24.87
2019-04-04T00:19:53.356Z,26.07
2019-04-04T00:20:31.511Z,25.83
2019-04-04T00:21:05.901Z,24.50
2019-04-04T00:21:41.377Z,25.00
2019-04-04T00:22:17.204Z,23.57
2019-04-04T00:22:52.646Z,24.80
2019-04-04T00:23:28.512Z,25.90
2019-04-04T00:24:04.224Z,25.00
2019-04-04T00:24:39.952Z,25.27
2019-04-04T00:25:15.711Z,25.27
2019-04-04T00:25:51.130Z,25.17
2019-04-04T00:26:26.565Z,25.53
2019-04-04T00:27:01.979Z,24.47
2019-04-04T00:27:37.505Z,26.87
2019-04-04T00:28:15.024Z,24.20
2019-04-04T00:28:50.767Z,24.10
2019-04-04T00:29:26.221Z,24.03
2019-04-04T00:30:01.798Z,25.83
2019-04-04T00:30:37.495Z,25.73
2019-04-04T00:31:13.102Z,25.07
2019-04-04T00:31:49.866Z,24.53
2019-04-04T00:32:26.033Z,23.93
2019-04-04T00:33:01.560Z,22.30
2019-04-04T00:33:36.945Z,25.53
2019-04-04T00:34:13.855Z,23.00
2019-04-04T00:34:49.713Z,24.00
2019-04-04T00:35:25.230Z,22.93
2019-04-04T00:36:02.635Z,23.03
2019-04-04T00:36:38.165Z,23.37
2019-04-04T00:37:13.909Z,26.27
2019-04-04T00:37:49.344Z,25.77
2019-04-04T00:38:24.778Z,24.83
2019-04-04T00:39:00.200Z,24.00
2019-04-04T00:39:36.113Z,23.30
2019-04-04T00:40:11.893Z,22.97
2019-04-04T00:40:47.582Z,23.43
2019-04-04T00:41:23.156Z,23.90
2019-04-04T00:41:58.585Z,24.63
2019-04-04T00:42:34.022Z,23.60
2019-04-04T00:43:09.446Z,25.03
2019-04-04T00:43:45.253Z,25.23
2019-04-04T00:44:21.027Z,23.73
2019-04-04T00:44:57.779Z,22.87
2019-04-04T00:45:33.676Z,24.07
2019-04-04T00:46:09.167Z,23.17
2019-04-04T00:46:44.612Z,24.73
2019-04-04T00:47:20.011Z,24.33
2019-04-04T00:47:55.533Z,24.90
2019-04-04T00:48:32.245Z,23.80
2019-04-04T00:49:08.434Z,24.20
2019-04-04T00:49:44.474Z,22.97
2019-04-04T00:50:20.620Z,24.20
2019-04-04T00:50:56.472Z,24.90
2019-04-04T00:51:32.094Z,24.77
2019-04-04T00:52:10.041Z,23.33
2019-04-04T00:52:44.692Z,24.87
2019-04-04T00:53:20.096Z,25.43
2019-04-04T00:53:55.894Z,26.57
2019-04-04T00:54:31.287Z,25.10
2019-04-04T00:55:07.344Z,26.07
2019-04-04T00:55:42.779Z,25.43
2019-04-04T00:56:18.809Z,27.13
2019-04-04T00:56:54.693Z,26.67
2019-04-04T00:57:30.434Z,25.73
2019-04-04T00:58:05.851Z,27.00
2019-04-04T00:58:41.448Z,25.03
2019-04-04T00:59:16.894Z,27.13
2019-04-04T00:59:53.640Z,26.90
2019-04-04T01:00:29.397Z,25.80
2019-04-04T01:01:04.885Z,27.47
2019-04-04T01:01:40.656Z,25.80
2019-04-04T01:02:16.097Z,28.47
2019-04-04T01:02:51.632Z,27.80
2019-04-04T01:03:29.758Z,29.20
2019-04-04T01:04:04.257Z,29.30
2019-04-04T01:04:39.713Z,29.37
2019-04-04T01:05:15.483Z,27.27
2019-04-04T01:05:51.105Z,28.70
2019-04-04T01:06:26.517Z,28.30
2019-04-04T01:07:03.034Z,28.20
2019-04-04T01:07:39.402Z,27.87
2019-04-04T01:08:14.895Z,28.20
2019-04-04T01:08:50.300Z,27.77
2019-04-04T01:09:25.712Z,30.60
2019-04-04T01:10:01.402Z,28.23
2019-04-04T01:10:37.389Z,29.03
2019-04-04T01:11:13.232Z,28.67
2019-04-04T01:11:51.123Z,29.03
2019-04-04T01:12:26.552Z,28.33
2019-04-04T01:13:02.303Z,27.03
2019-04-04T01:13:37.733Z,27.43
2019-04-04T01:14:13.176Z,28.30
2019-04-04T01:14:48.606Z,27.80
2019-04-04T01:15:24.014Z,27.73
2019-04-04T01:16:02.513Z,28.13
2019-04-04T01:16:36.906Z,27.87
2019-04-04T01:17:12.449Z,27.90
2019-04-04T01:17:47.907Z,27.13
2019-04-04T01:18:23.344Z,27.40
2019-04-04T01:18:58.864Z,28.47
2019-04-04T01:19:34.287Z,27.63
2019-04-04T01:20:10.733Z,25.63
2019-04-04T01:20:46.260Z,28.97
2019-04-04T01:21:22.243Z,28.07
2019-04-04T01:21:58.796Z,26.90
2019-04-04T01:22:34.215Z,28.73
2019-04-04T01:23:09.674Z,28.70
2019-04-04T01:23:45.221Z,29.13
2019-04-04T01:24:20.882Z,27.63
2019-04-04T01:24:56.296Z,27.53
2019-04-04T01:25:32.791Z,27.47
2019-04-04T01:26:08.501Z,28.10
2019-04-04T01:26:43.970Z,30.30
2019-04-04T01:27:19.413Z,28.23
2019-04-04T01:27:54.819Z,27.47
2019-04-04T01:28:30.245Z,28.90
2019-04-04T01:29:06.084Z,28.57
2019-04-04T01:29:41.612Z,29.13
2019-04-04T01:30:17.261Z,30.20
2019-04-04T01:30:52.856Z,28.73
2019-04-04T01:31:28.381Z,29.30
2019-04-04T01:32:03.904Z,29.53
2019-04-04T01:32:39.366Z,29.17
2019-04-04T01:33:14.843Z,29.87
2019-04-04T01:33:51.672Z,30.77
2019-04-04T01:34:27.608Z,32.27
2019-04-04T01:35:03.080Z,31.23
2019-04-04T01:35:38.510Z,30.50
2019-04-04T01:36:14.313Z,29.60
2019-04-04T01:36:49.745Z,27.70
2019-04-04T01:37:27.163Z,30.37
2019-04-04T01:38:02.682Z,28.97
2019-04-04T01:38:38.556Z,29.23
2019-04-04T01:39:14.011Z,29.77
2019-04-04T01:39:49.436Z,29.53
2019-04-04T01:40:24.950Z,29.53
2019-04-04T01:41:03.970Z,29.00
2019-04-04T01:41:37.477Z,30.23
2019-04-04T01:42:13.075Z,30.87
2019-04-04T01:42:48.639Z,29.47
2019-04-04T01:43:24.088Z,30.50
2019-04-04T01:44:04.995Z,29.80
2019-04-04T01:44:36.702Z,29.70
2019-04-04T01:45:13.079Z,29.37
2019-04-04T01:45:49.190Z,28.40
2019-04-04T01:46:24.895Z,28.77
2019-04-04T01:47:00.321Z,28.83
2019-04-04T01:47:35.740Z,29.33
2019-04-04T01:48:11.510Z,29.30
2019-04-04T01:48:49.698Z,30.17
2019-04-04T01:49:24.102Z,32.60
2019-04-04T01:49:59.534Z,32.17
2019-04-04T01:50:34.948Z,32.03
2019-04-04T01:51:10.477Z,32.97
2019-04-04T01:51:45.986Z,33.43
2019-04-04T01:52:21.508Z,32.03
2019-04-04T01:52:59.264Z,30.97
2019-04-04T01:53:35.095Z,31.93
2019-04-04T01:54:10.523Z,33.23
2019-04-04T01:54:46.498Z,32.67
2019-04-04T01:55:21.922Z,28.73
2019-04-04T01:55:57.325Z,32.97
2019-04-04T01:56:32.743Z,31.13
2019-04-04T01:57:08.820Z,30.87
2019-04-04T01:57:44.227Z,30.90
2019-04-04T01:58:19.712Z,32.23
2019-04-04T01:58:55.130Z,30.93
2019-04-04T01:59:30.551Z,32.10
2019-04-04T02:00:06.849Z,29.63
2019-04-04T02:00:43.982Z,29.97
2019-04-04T02:01:19.471Z,28.60
2019-04-04T02:01:54.915Z,29.67
2019-04-04T02:02:30.443Z,30.83
2019-04-04T02:03:05.879Z,31.23
2019-04-04T02:03:41.501Z,30.20
2019-04-04T02:04:17.010Z,28.80
2019-04-04T02:04:55.548Z,28.67
2019-04-04T02:05:29.940Z,27.27
2019-04-04T02:06:05.500Z,30.03
2019-04-04T02:06:41.298Z,30.43
2019-04-04T02:07:16.725Z,31.67
2019-04-04T02:07:52.153Z,33.30
2019-04-04T02:08:27.591Z,28.40
2019-04-04T02:09:04.906Z,27.40
2019-04-04T02:09:43.228Z,28.63
2019-04-04T02:10:17.884Z,27.27
2019-04-04T02:10:53.290Z,27.47
2019-04-04T02:11:28.735Z,27.27
2019-04-04T02:12:07.512Z,27.73
2019-04-04T02:12:41.647Z,27.23
2019-04-04T02:13:17.075Z,28.60
2019-04-04T02:13:52.525Z,27.03
2019-04-04T02:14:28.312Z,27.07
2019-04-04T02:15:03.987Z,28.07
2019-04-04T02:15:39.433Z,29.67
2019-04-04T02:16:17.075Z,29.13
2019-04-04T02:16:52.149Z,29.33
2019-04-04T02:17:27.672Z,26.60
2019-04-04T02:18:03.087Z,27.80
2019-04-04T02:18:38.793Z,28.37
2019-04-04T02:19:14.253Z,28.43
2019-04-04T02:19:49.700Z,27.63
2019-04-04T02:20:26.977Z,28.33
2019-04-04T02:21:02.242Z,29.00
2019-04-04T02:21:37.670Z,29.43
2019-04-04T02:22:13.146Z,28.20
2019-04-04T02:22:48.592Z,28.30
2019-04-04T02:23:24.149Z,27.60
2019-04-04T02:24:01.299Z,28.80
2019-04-04T02:24:36.750Z,30.50
2019-04-04T02:25:12.455Z,29.70
2019-04-04T02:25:47.916Z,30.13
2019-04-04T02:26:23.369Z,29.00
2019-04-04T02:26:58.970Z,28.97
2019-04-04T02:27:37.626Z,28.10
2019-04-04T02:28:11.690Z,27.43
2019-04-04T02:28:47.139Z,26.57
2019-04-04T02:29:22.989Z,27.97
2019-04-04T02:29:58.674Z,27.37
2019-04-04T02:30:34.082Z,28.10
2019-04-04T02:31:09.695Z,28.50
2019-04-04T02:31:48.131Z,28.30
2019-04-04T02:32:26.589Z,28.23
2019-04-04T02:33:00.857Z,28.30
2019-04-04T02:33:36.365Z,29.17
2019-04-04T02:34:11.826Z,28.57
2019-04-04T02:34:47.337Z,28.73
2019-04-04T02:35:22.866Z,27.47
2019-04-04T02:35:58.298Z,28.43
2019-04-04T02:36:33.691Z,29.27
2019-04-04T02:37:09.121Z,27.27
2019-04-04T02:37:44.951Z,29.10
2019-04-04T02:38:20.385Z,27.47
2019-04-04T02:39:10.550Z,28.17
2019-04-04T02:39:45.954Z,28.33
2019-04-04T02:40:21.769Z,29.33
2019-04-04T02:40:57.479Z,29.27
2019-04-04T02:41:32.938Z,29.93
2019-04-04T02:42:08.761Z,29.70
2019-04-04T02:42:44.210Z,31.07
2019-04-04T02:43:19.661Z,29.87
2019-04-04T02:43:55.080Z,29.90
2019-04-04T02:44:32.214Z,29.67
2019-04-04T02:45:08.003Z,31.20
2019-04-04T02:45:43.513Z,31.93
2019-04-04T02:46:18.925Z,30.53
2019-04-04T02:46:54.685Z,30.13
2019-04-04T02:47:30.115Z,29.33
2019-04-04T02:48:05.561Z,30.80
2019-04-04T02:48:41.017Z,31.80
2019-04-04T02:49:16.466Z,32.40
2019-04-04T02:49:51.927Z,31.70
2019-04-04T02:50:27.347Z,30.43
2019-04-04T02:51:07.008Z,30.53
2019-04-04T02:51:41.081Z,31.17
2019-04-04T02:52:16.873Z,30.90
2019-04-04T02:52:52.299Z,28.83
2019-04-04T02:53:27.735Z,29.53
2019-04-04T02:54:03.206Z,29.90
2019-04-04T02:54:39.090Z,29.90
2019-04-04T02:55:14.510Z,29.03
2019-04-04T02:55:50.898Z,29.80
2019-04-04T02:56:26.352Z,31.03
2019-04-04T02:57:01.778Z,30.73
2019-04-04T02:57:40.994Z,30.63
2019-04-04T02:58:15.364Z,30.53
2019-04-04T02:58:51.315Z,28.50
2019-04-04T02:59:26.838Z,30.40
2019-04-04T03:00:02.317Z,30.40
2019-04-04T03:00:37.775Z,29.50
2019-04-04T03:01:13.630Z,30.13
2019-04-04T03:01:49.064Z,31.90
2019-04-04T03:02:24.494Z,30.77
2019-04-04T03:02:59.912Z,32.03
2019-04-04T03:03:35.357Z,32.10
2019-04-04T03:04:13.485Z,32.13
2019-04-04T03:04:48.248Z,32.27
2019-04-04T03:05:23.670Z,33.07
2019-04-04T03:05:59.329Z,34.33
2019-04-04T03:06:35.058Z,32.63
2019-04-04T03:07:10.828Z,32.13
2019-04-04T03:07:46.361Z,29.63
2019-04-04T03:08:22.377Z,29.93
2019-04-04T03:08:57.798Z,30.53
2019-04-04T03:09:33.326Z,31.43
2019-04-04T03:10:08.846Z,31.30
2019-04-04T03:10:47.708Z,33.53
2019-04-04T03:11:22.776Z,31.63
2019-04-04T03:11:58.684Z,34.57
2019-04-04T03:12:34.155Z,31.73
2019-04-04T03:13:09.565Z,31.70
2019-04-04T03:13:45.098Z,32.30
2019-04-04T03:14:20.504Z,31.23
2019-04-04T03:14:55.947Z,30.47
2019-04-04T03:15:31.370Z,33.47
2019-04-04T03:16:07.163Z,30.17
2019-04-04T03:16:42.661Z,31.67
2019-04-04T03:17:18.101Z,31.13
2019-04-04T03:17:53.524Z,32.60
2019-04-04T03:18:28.966Z,32.97
2019-04-04T03:19:04.383Z,32.60
2019-04-04T03:19:40.709Z,30.70
2019-04-04T03:20:17.651Z,30.70
2019-04-04T03:20:53.241Z,30.07
2019-04-04T03:21:28.649Z,32.60
2019-04-04T03:22:04.082Z,32.53
2019-04-04T03:22:39.510Z,32.73
2019-04-04T03:23:14.974Z,32.13
2019-04-04T03:23:50.475Z,32.90
2019-04-04T03:24:25.885Z,32.20
2019-04-04T03:25:01.620Z,32.53
2019-04-04T03:25:37.743Z,32.30
2019-04-04T03:26:13.137Z,32.93
2019-04-04T03:26:52.212Z,34.53
2019-04-04T03:27:26.975Z,31.33
2019-04-04T03:28:02.733Z,32.60
2019-04-04T03:28:38.127Z,31.17
2019-04-04T03:29:13.572Z,33.60
2019-04-04T03:29:49.064Z,33.33
2019-04-04T03:30:24.503Z,31.97
2019-04-04T03:31:02.804Z,31.77
2019-04-04T03:31:39.051Z,33.20
2019-04-04T03:32:16.731Z,31.53
2019-04-04T03:32:54.376Z,31.37
2019-04-04T03:33:32.077Z,33.90
2019-04-04T03:34:10.950Z,31.73
2019-04-04T03:34:48.612Z,34.27
2019-04-04T03:35:25.689Z,33.17
2019-04-04T03:36:00.937Z,32.43
2019-04-04T03:36:34.744Z,32.10
2019-04-04T03:37:12.373Z,30.87
2019-04-04T03:37:47.334Z,30.40
2019-04-04T03:38:22.742Z,30.63
2019-04-04T03:38:58.186Z,30.87
2019-04-04T03:39:33.605Z,33.20
2019-04-04T03:40:09.706Z,30.87
2019-04-04T03:40:45.160Z,32.97
2019-04-04T03:41:20.581Z,31.27
2019-04-04T03:41:56.011Z,32.30
2019-04-04T03:42:31.692Z,31.70
2019-04-04T03:43:07.146Z,29.97
2019-04-04T03:43:42.670Z,31.57
2019-04-04T03:44:19.837Z,30.53
2019-04-04T03:44:55.630Z,32.10
2019-04-04T03:45:31.064Z,31.07
2019-04-04T03:46:06.896Z,32.20
2019-04-04T03:46:42.351Z,30.07
2019-04-04T03:47:17.803Z,30.70
2019-04-04T03:47:53.893Z,29.77
2019-04-04T03:48:29.301Z,30.43
2019-04-04T03:49:04.713Z,30.53
2019-04-04T03:49:40.159Z,32.30
2019-04-04T03:50:15.666Z,31.50
2019-04-04T03:50:51.103Z,31.53
2019-04-04T03:51:26.527Z,31.43
2019-04-04T03:52:02.330Z,31.73
2019-04-04T03:52:37.742Z,33.53
2019-04-04T03:53:16.353Z,32.63
2019-04-04T03:53:52.784Z,30.87
2019-04-04T03:54:28.593Z,30.30
2019-04-04T03:55:04.409Z,29.20
2019-04-04T03:55:39.849Z,30.80
2019-04-04T03:56:15.883Z,30.47
2019-04-04T03:56:51.297Z,32.27
2019-04-04T03:57:26.789Z,29.90
2019-04-04T03:58:02.551Z,31.27
2019-04-04T03:58:37.939Z,30.43
2019-04-04T03:59:13.843Z,29.07
2019-04-04T03:59:49.294Z,29.17
2019-04-04T04:00:27.820Z,29.93
2019-04-04T04:01:03.237Z,29.50
2019-04-04T04:01:38.703Z,31.00
2019-04-04T04:02:17.907Z,31.67
2019-04-04T04:02:51.271Z,30.27
2019-04-04T04:03:26.694Z,31.07
2019-04-04T04:04:02.110Z,31.67
2019-04-04T04:04:37.602Z,30.67
2019-04-04T04:05:26.696Z,31.53
2019-04-04T04:06:02.512Z,31.50
2019-04-04T04:06:41.536Z,31.57
2019-04-04T04:07:15.431Z,30.00
2019-04-04T04:07:51.472Z,32.33
2019-04-04T04:08:26.881Z,32.23
2019-04-04T04:09:02.311Z,31.27
2019-04-04T04:09:37.707Z,32.03
2019-04-04T04:10:13.710Z,31.80
2019-04-04T04:10:49.154Z,31.73
2019-04-04T04:11:24.593Z,31.97
2019-04-04T04:12:01.850Z,32.10
2019-04-04T04:12:37.277Z,33.17
2019-04-04T04:13:16.134Z,31.63
2019-04-04T04:13:50.148Z,30.90
2019-04-04T04:14:26.029Z,31.37
2019-04-04T04:15:01.470Z,30.87
2019-04-04T04:15:36.976Z,32.87
2019-04-04T04:16:12.431Z,31.87
2019-04-04T04:16:47.957Z,30.67
2019-04-04T04:17:23.387Z,30.70
2019-04-04T04:17:58.833Z,30.60
2019-04-04T04:18:34.248Z,29.17
2019-04-04T04:19:09.775Z,31.23
2019-04-04T04:19:45.178Z,32.20
2019-04-04T04:20:20.614Z,31.73
2019-04-04T04:20:56.046Z,31.00
2019-04-04T04:21:31.466Z,29.63
2019-04-04T04:22:06.896Z,31.37
2019-04-04T04:22:42.346Z,29.83
2019-04-04T04:23:17.801Z,29.53
2019-04-04T04:23:56.453Z,31.07
2019-04-04T04:24:30.547Z,30.70
2019-04-04T04:25:05.996Z,29.90
2019-04-04T04:25:44.625Z,29.93
2019-04-04T04:26:20.067Z,30.33
2019-04-04T04:26:55.482Z,29.87
2019-04-04T04:27:30.909Z,31.80
2019-04-04T04:28:06.308Z,31.87
2019-04-04T04:28:42.388Z,29.63
2019-04-04T04:29:17.834Z,31.57
2019-04-04T04:29:53.238Z,29.63
2019-04-04T04:30:28.649Z,29.30
2019-04-04T04:31:04.427Z,28.97
2019-04-04T04:31:40.177Z,30.03
2019-04-04T04:32:15.916Z,29.67
2019-04-04T04:32:55.864Z,31.03
2019-04-04T04:33:29.289Z,31.27
2019-04-04T04:34:05.465Z,31.83
2019-04-04T04:34:41.114Z,30.53
2019-04-04T04:35:16.532Z,29.57
2019-04-04T04:35:52.061Z,30.60
2019-04-04T04:36:27.481Z,31.80
2019-04-04T04:37:02.908Z,32.87
2019-04-04T04:37:38.363Z,30.37
2019-04-04T04:38:13.812Z,31.50
2019-04-04T04:38:49.306Z,32.37
2019-04-04T04:39:24.716Z,32.87
2019-04-04T04:40:00.137Z,31.57
2019-04-04T04:40:35.681Z,33.07
2019-04-04T04:41:11.155Z,33.67
2019-04-04T04:41:47.116Z,33.87
2019-04-04T04:42:26.179Z,29.67
2019-04-04T04:43:01.022Z,29.43
2019-04-04T04:43:36.584Z,31.90
2019-04-04T04:44:12.022Z,32.40
2019-04-04T04:44:47.453Z,32.20
2019-04-04T04:45:22.984Z,33.23
2019-04-04T04:45:58.394Z,30.53
2019-04-04T04:46:33.917Z,31.73
2019-04-04T04:47:09.353Z,29.73
2019-04-04T04:47:44.802Z,30.30
2019-04-04T04:48:20.315Z,29.97
2019-04-04T04:48:55.785Z,31.03
2019-04-04T04:49:31.155Z,32.27
2019-04-04T04:50:09.698Z,31.47
2019-04-04T04:50:43.800Z,31.33
2019-04-04T04:51:19.269Z,33.70
2019-04-04T04:51:54.666Z,33.20
2019-04-04T04:52:30.120Z,33.53
2019-04-04T04:53:05.540Z,34.73
2019-04-04T04:53:40.962Z,35.00
2019-04-04T04:54:16.389Z,37.17
2019-04-04T04:54:54.310Z,36.10
2019-04-04T04:55:29.638Z,36.80
2019-04-04T04:56:05.364Z,37.50
2019-04-04T04:56:40.826Z,35.73
2019-04-04T04:57:28.754Z,36.47
2019-04-04T04:57:56.104Z,36.77
2019-04-04T04:58:30.515Z,35.10
2019-04-04T04:59:05.931Z,35.70
2019-04-04T04:59:44.361Z,35.13
2019-04-04T05:00:18.584Z,38.57
2019-04-04T05:00:54.352Z,36.63
2019-04-04T05:01:30.106Z,36.37
2019-04-04T05:02:05.725Z,37.00
2019-04-04T05:02:41.275Z,36.53
2019-04-04T05:03:17.105Z,35.40
2019-04-04T05:03:54.209Z,32.97
2019-04-04T05:04:29.675Z,34.27
2019-04-04T05:05:05.437Z,36.70
2019-04-04T05:05:40.964Z,35.43
2019-04-04T05:06:16.386Z,35.07
2019-04-04T05:06:51.828Z,35.00
2019-04-04T05:07:27.267Z,38.27
2019-04-04T05:08:02.693Z,35.17
2019-04-04T05:08:39.041Z,35.30
2019-04-04T05:09:15.296Z,34.37
2019-04-04T05:09:50.698Z,36.03
2019-04-04T05:10:26.123Z,34.60
2019-04-04T05:11:01.545Z,33.27
2019-04-04T05:11:37.030Z,33.67
2019-04-04T05:12:12.476Z,32.40
2019-04-04T05:12:47.939Z,34.07
2019-04-04T05:13:25.102Z,32.27
2019-04-04T05:14:00.455Z,33.40
2019-04-04T05:14:36.249Z,32.00
2019-04-04T05:15:11.690Z,32.47
2019-04-04T05:15:47.138Z,34.17
2019-04-04T05:16:22.560Z,32.83
2019-04-04T05:16:57.990Z,34.60
2019-04-04T05:17:33.398Z,34.67
2019-04-04T05:18:11.698Z,35.10
2019-04-04T05:18:47.738Z,35.00
2019-04-04T05:19:23.076Z,35.03
2019-04-04T05:19:58.478Z,35.50
2019-04-04T05:20:34.211Z,34.30
2019-04-04T05:21:09.796Z,34.10
2019-04-04T05:21:45.610Z,34.87
2019-04-04T05:22:21.032Z,34.40
2019-04-04T05:22:56.933Z,33.67
2019-04-04T05:23:32.325Z,35.57
2019-04-04T05:24:07.804Z,33.30
2019-04-04T05:24:43.616Z,35.73
2019-04-04T05:25:19.040Z,36.13
2019-04-04T05:25:54.577Z,35.43
2019-04-04T05:26:30.015Z,36.13
2019-04-04T05:27:05.998Z,35.37
2019-04-04T05:27:42.187Z,37.33
2019-04-04T05:28:17.682Z,35.87
2019-04-04T05:28:53.127Z,36.03
2019-04-04T05:29:28.556Z,36.77
2019-04-04T05:30:04.635Z,36.30
2019-04-04T05:30:40.038Z,35.30
2019-04-04T05:31:16.130Z,35.33
2019-04-04T05:31:52.716Z,37.63
2019-04-04T05:32:28.143Z,35.83
2019-04-04T05:33:03.586Z,38.07
2019-04-04T05:33:39.377Z,36.20
2019-04-04T05:34:14.972Z,37.70
2019-04-04T05:34:50.398Z,35.60
2019-04-04T05:35:25.801Z,36.43
2019-04-04T05:36:01.234Z,36.73
2019-04-04T05:36:37.037Z,36.10
2019-04-04T05:37:12.735Z,36.73
2019-04-04T05:37:48.166Z,37.43
2019-04-04T05:38:23.588Z,35.97
2019-04-04T05:38:59.403Z,38.60
2019-04-04T05:39:35.173Z,34.97
2019-04-04T05:40:11.249Z,37.13
2019-04-04T05:40:46.998Z,37.10
2019-04-04T05:41:22.557Z,37.70
2019-04-04T05:42:00.386Z,36.17
2019-04-04T05:42:36.749Z,36.73
2019-04-04T05:43:14.868Z,40.67
2019-04-04T05:43:49.323Z,38.77
2019-04-04T05:44:25.380Z,38.07
2019-04-04T05:45:01.120Z,36.53
2019-04-04T05:45:36.550Z,38.33
2019-04-04T05:46:11.968Z,39.03
2019-04-04T05:46:47.424Z,37.27
2019-04-04T05:47:23.818Z,36.73
2019-04-04T05:47:59.823Z,36.43
2019-04-04T05:48:35.380Z,37.83
2019-04-04T05:49:11.537Z,37.20
2019-04-04T05:49:47.414Z,36.00
2019-04-04T05:50:23.218Z,34.87
2019-04-04T05:50:58.678Z,35.83
2019-04-04T05:51:36.192Z,36.23
2019-04-04T05:52:11.601Z,34.50
2019-04-04T05:52:47.052Z,34.37
2019-04-04T05:53:22.921Z,33.87
2019-04-04T05:53:58.342Z,33.53
2019-04-04T05:54:33.754Z,32.83
2019-04-04T05:55:10.926Z,33.67
2019-04-04T05:55:46.828Z,32.13
2019-04-04T05:56:24.298Z,33.30
2019-04-04T05:56:59.402Z,33.20
2019-04-04T05:57:35.222Z,34.67
2019-04-04T05:58:10.798Z,31.90
2019-04-04T05:58:46.274Z,33.73
2019-04-04T05:59:23.767Z,32.47
2019-04-04T05:59:58.976Z,31.33
2019-04-04T06:00:35.017Z,34.40
2019-04-04T06:01:11.433Z,32.23
2019-04-04T06:01:46.937Z,31.63
2019-04-04T06:02:22.398Z,32.40
2019-04-04T06:02:57.856Z,33.20
2019-04-04T06:03:33.696Z,33.23
2019-04-04T06:04:09.141Z,32.53
2019-04-04T06:04:44.626Z,31.83
2019-04-04T06:05:20.073Z,33.27
2019-04-04T06:05:55.476Z,30.37
2019-04-04T06:06:33.473Z,32.20
2019-04-04T06:07:08.755Z,30.63
2019-04-04T06:07:44.242Z,31.47
2019-04-04T06:08:20.092Z,30.93
2019-04-04T06:08:55.558Z,33.03
2019-04-04T06:09:30.973Z,34.17
2019-04-04T06:10:06.816Z,31.80
2019-04-04T06:10:42.367Z,33.37
2019-04-04T06:11:20.984Z,33.60
2019-04-04T06:11:55.808Z,34.33
2019-04-04T06:12:31.862Z,36.90
2019-04-04T06:13:07.292Z,33.80
2019-04-04T06:13:42.750Z,35.67
2019-04-04T06:14:20.586Z,37.30
2019-04-04T06:14:55.531Z,35.23
2019-04-04T06:15:32.187Z,36.43
2019-04-04T06:16:08.168Z,36.00
2019-04-04T06:16:44.047Z,39.07
2019-04-04T06:17:19.495Z,38.63
2019-04-04T06:17:55.266Z,40.17
2019-04-04T06:18:30.692Z,39.50
2019-04-04T06:19:06.118Z,38.97
2019-04-04T06:19:44.405Z,37.53
2019-04-04T06:20:19.042Z,37.80
2019-04-04T06:20:54.426Z,38.80
2019-04-04T06:21:29.949Z,38.80
2019-04-04T06:22:05.378Z,38.03
2019-04-04T06:22:40.873Z,38.10
2019-04-04T06:23:16.544Z,37.43
2019-04-04T06:23:51.965Z,36.73
2019-04-04T06:24:27.973Z,38.00
2019-04-04T06:25:03.848Z,37.90
2019-04-04T06:25:39.277Z,37.67
2019-04-04T06:26:15.045Z,38.40
2019-04-04T06:26:50.459Z,34.53
2019-04-04T06:27:25.909Z,40.30
2019-04-04T06:28:01.639Z,36.00
2019-04-04T06:28:37.054Z,37.43
2019-04-04T06:29:12.974Z,36.63
2019-04-04T06:29:48.431Z,37.00
2019-04-04T06:30:23.960Z,39.50
2019-04-04T06:31:00.872Z,36.83
2019-04-04T06:31:36.352Z,35.77
2019-04-04T06:32:11.858Z,37.17
2019-04-04T06:32:47.704Z,36.63
2019-04-04T06:33:23.143Z,36.27
2019-04-04T06:33:58.557Z,35.00
2019-04-04T06:34:34.267Z,37.57
2019-04-04T06:35:10.081Z,37.57
2019-04-04T06:35:47.855Z,36.53
2019-04-04T06:36:22.643Z,38.00
2019-04-04T06:36:58.093Z,36.17
2019-04-04T06:37:34.456Z,35.10
2019-04-04T06:38:10.307Z,38.40
2019-04-04T06:38:45.763Z,34.50
2019-04-04T06:39:23.028Z,36.57
2019-04-04T06:39:58.976Z,39.77
2019-04-04T06:40:35.285Z,38.93
2019-04-04T06:41:10.893Z,38.53
2019-04-04T06:41:46.451Z,36.07
2019-04-04T06:42:22.181Z,37.27
2019-04-04T06:42:57.591Z,39.77
2019-04-04T06:43:33.062Z,37.50
2019-04-04T06:44:08.563Z,37.13
2019-04-04T06:44:44.458Z,40.60
2019-04-04T06:45:20.016Z,38.53
2019-04-04T06:45:55.438Z,37.77
2019-04-04T06:46:30.868Z,39.30
2019-04-04T06:47:06.331Z,38.30
2019-04-04T06:47:41.786Z,40.20
2019-04-04T06:48:17.201Z,36.57
2019-04-04T06:48:52.627Z,38.53
2019-04-04T06:49:28.924Z,37.13
2019-04-04T06:50:08.180Z,40.80
2019-04-04T06:50:43.159Z,37.97
2019-04-04T06:51:18.612Z,42.87
2019-04-04T06:51:54.033Z,41.37
2019-04-04T06:52:29.494Z,41.40
2019-04-04T06:53:04.921Z,42.33
2019-04-04T06:53:40.454Z,43.47
2019-04-04T06:54:15.929Z,39.47
2019-04-04T06:54:51.611Z,42.73
2019-04-04T06:55:28.768Z,35.57
2019-04-04T06:56:04.191Z,35.63
2019-04-04T06:56:39.611Z,34.47
2019-04-04T06:57:15.121Z,35.67
2019-04-04T06:57:51.405Z,35.07
2019-04-04T06:58:27.209Z,34.27
2019-04-04T06:59:02.972Z,36.03
2019-04-04T06:59:38.791Z,36.53
2019-04-04T07:00:15.988Z,33.60
2019-04-04T07:00:51.359Z,34.53
2019-04-04T07:01:27.114Z,34.90
2019-04-04T07:02:05.089Z,38.37
2019-04-04T07:02:39.800Z,38.83
2019-04-04T07:03:15.296Z,41.17
2019-04-04T07:03:52.653Z,37.80
2019-04-04T07:04:29.296Z,35.63
2019-04-04T07:05:06.317Z,40.00
2019-04-04T07:05:42.632Z,37.83
2019-04-04T07:06:18.073Z,37.67
2019-04-04T07:06:53.846Z,36.30
2019-04-04T07:07:29.703Z,37.97
2019-04-04T07:08:05.196Z,37.93
2019-04-04T07:08:40.616Z,32.97
2019-04-04T07:09:18.386Z,35.50
2019-04-04T07:09:53.288Z,37.57
2019-04-04T07:10:28.735Z,39.00
2019-04-04T07:11:06.978Z,36.30
2019-04-04T07:11:41.722Z,38.17
2019-04-04T07:12:24.259Z,35.93
2019-04-04T07:13:09.270Z,36.73
2019-04-04T07:13:41.751Z,35.03
2019-04-04T07:14:09.294Z,37.90
2019-04-04T07:14:47.085Z,36.23
2019-04-04T07:15:22.530Z,34.23
2019-04-04T07:16:06.837Z,40.97
2019-04-04T07:16:36.845Z,37.50
2019-04-04T07:17:12.827Z,37.73
2019-04-04T07:17:48.302Z,37.27
2019-04-04T07:18:24.171Z,36.23
2019-04-04T07:18:59.588Z,35.33
2019-04-04T07:19:35.021Z,39.07
2019-04-04T07:20:11.077Z,39.87
2019-04-04T07:20:48.405Z,38.67
2019-04-04T07:21:24.829Z,41.23
2019-04-04T07:22:00.263Z,42.73
2019-04-04T07:22:35.696Z,38.73
2019-04-04T07:23:14.150Z,41.73
2019-04-04T07:23:48.533Z,41.07
2019-04-04T07:24:24.033Z,41.40
2019-04-04T07:25:01.170Z,41.10
2019-04-04T07:25:39.438Z,41.30
2019-04-04T07:26:14.863Z,40.20
2019-04-04T07:26:50.590Z,41.53
2019-04-04T07:27:26.012Z,39.77
2019-04-04T07:28:01.469Z,45.27
2019-04-04T07:28:36.871Z,45.83
2019-04-04T07:29:12.604Z,42.40
2019-04-04T07:29:48.013Z,46.40
2019-04-04T07:30:23.459Z,46.10
2019-04-04T07:31:01.203Z,43.47
2019-04-04T07:31:38.343Z,45.23
2019-04-04T07:32:13.720Z,47.60
2019-04-04T07:32:49.238Z,42.47
2019-04-04T07:33:24.945Z,44.37
2019-04-04T07:34:00.350Z,49.03
2019-04-04T07:34:36.233Z,48.20
2019-04-04T07:35:11.649Z,44.20
2019-04-04T07:35:48.902Z,44.73
2019-04-04T07:36:24.314Z,44.37
2019-04-04T07:37:00.006Z,46.60
2019-04-04T07:37:35.875Z,44.90
2019-04-04T07:38:11.782Z,45.40
2019-04-04T07:38:47.539Z,45.83
2019-04-04T07:39:22.970Z,44.13
2019-04-04T07:39:58.382Z,44.20
2019-04-04T07:40:37.176Z,44.43
2019-04-04T07:41:14.490Z,44.03
2019-04-04T07:41:48.645Z,42.30
2019-04-04T07:42:24.059Z,43.27